x

Western Prince William Sound (46081) Wave Buoy

5:50am - Thu 23rd Oct 2014 All times are UTC.

  • Sig Wave height 0.3ft
  • Average Period 2s
  • Wind
    7mph, 11mph gusts
  • Sea Temp 45°f
  • Air Temp 42°f
  • Sea Pressure 996.5mb

More Historic Weather Station data

Upgrade to MSW Pro to gain access to the past 30 days of data for over 8000 Wavebouys and Weather Stations around the globe.

Join Pro

Comparision Forecast

View Surf forecast
   
Thu 10/23 5:50am 0.3ft  -  2s 7 11 mph 996.5mb 45f 42f
4:50am 0.3ft  -  2s 9 11 mph 996mb 45f 42f
3:50am 0.3ft  -  2s 4 7 mph 995.4mb 45f 42f
2:50am 0.7ft  -  2s 13 20 mph 994.5mb 46f 42f
1:50am 0.7ft  -  2s 13 20 mph 993.7mb 46f 43f
12:50am 1.3ft 3s 3s 18 25 mph 992.7mb 46f 43f
Wed 10/22 11:50pm 1ft 3s 3s 20 25 mph 992mb 46f 42f
10:50pm 1ft 2s 3s 20 25 mph 991.3mb 46f 42f
9:50pm 1ft 3s 3s 20 22 mph 990.8mb 46f 43f
8:50pm 0.7ft  -  2s 4 11 mph 990.8mb 46f 43f
7:50pm  -   -  2s 4 9 mph 990.5mb 46f 41f
6:50pm  -   -  3s 4
mph
990.2mb 45f 39f
5:50pm  -   -  2s 4 7 mph 989.8mb 45f 38f
4:50pm  -   -  3s 4 7 mph 989.4mb 46f 38f
3:50pm  -   -  2s 4 7 mph 989mb 46f 39f
2:50pm  -   -  2s 2 4 mph 988.6mb 46f 39f
1:50pm  -   -  2s 7 9 mph 988.3mb 46f 40f
12:50pm  -   -  2s 9
mph
988mb 46f 40f
11:50am 0.3ft  -  2s 9 13 mph 987.6mb 46f 41f
10:50am 0.3ft  -  2s 9 16 mph 987.6mb 46f 42f
9:50am 0.7ft  -  2s 9 11 mph 987.5mb 45f 41f
8:50am 0.3ft  -  2s 13 16 mph 987.4mb 46f 42f
7:50am 0.7ft  -  2s 9 18 mph 987.6mb 46f 42f
6:50am 0.3ft  -  2s 7 13 mph 987.9mb 46f 42f
5:50am 0.3ft  -  2s 9
mph
988.3mb 46f 42f
4:50am 0.3ft  -  2s 9 13 mph 988.5mb 46f 43f
3:50am 0.3ft  -  2s 11 13 mph 988.7mb 46f 44f
2:50am  -   -  2s 7 11 mph 988.7mb 46f 45f
1:50am  -   -  3s 9 11 mph 988.7mb 46f 45f
12:50am  -   -  3s 9 11 mph 989mb 46f 46f
Tue 10/21 11:50pm  -   -  3s 7 9 mph 989.5mb 46f 45f
10:50pm  -   -  3s 4
mph
990.2mb 45f 44f
9:50pm  -   -  3s 2 4 mph 991mb 45f 43f
8:50pm  -   -  3s 4 7 mph 991.8mb 46f 42f
7:50pm 0.3ft  -  2s 4 7 mph 992.3mb 46f 42f
6:50pm 0.3ft  -  3s 9 11 mph 992.6mb 46f 40f
5:50pm 0.3ft  -  3s 9 11 mph 992.9mb 46f 40f
4:50pm 0.3ft  -  3s 4 7 mph 993.2mb 46f 41f
3:50pm 0.7ft  -  3s 11 13 mph 993.2mb 46f 42f
2:50pm 0.7ft  -  3s 11 13 mph 993.5mb 46f 40f
1:50pm 0.7ft  -  3s 13 16 mph 993.7mb 46f 39f
12:50pm 1.3ft 3s 3s 11 16 mph 993.4mb 46f 40f
11:50am 1ft 3s 3s 11 16 mph 993mb 46f 41f
10:50am 1.3ft 3s 3s 7 13 mph 993.3mb 46f 39f
9:50am 1.3ft 3s 3s 20 22 mph 992.1mb 46f 40f
8:50am 1ft 2s 3s 18 22 mph 991.8mb 47f 40f
7:50am 1ft 2s 3s 11 16 mph 991.5mb 47f 40f
6:50am 1ft 3s 3s 13 18 mph 990.7mb 47f 41f
5:50am 1.3ft 3s 3s 13 16 mph 989.5mb 47f 42f
4:50am 1.3ft 3s 3s 16 22 mph 989.2mb 47f 42f
3:50am 1ft 3s 3s 16 18 mph 988.6mb 47f 43f
2:50am 1ft 3s 3s 16 18 mph 987.9mb 47f 44f
1:50am 0.7ft  -  3s 9 11 mph 987.6mb 48f 46f
12:50am 0.7ft  -  3s 11 13 mph 986.9mb 47f 46f
Mon 10/20 11:50pm 0.7ft  -  3s 13 18 mph 986.1mb 46f 46f
10:50pm 0.3ft  -  3s 16 20 mph 985.2mb 46f 46f
9:50pm 0.3ft  -  3s 9
mph
984.5mb 46f 45f
8:50pm 0.7ft  -  3s 9 11 mph 983.8mb 46f 44f
7:50pm 0.3ft  -  3s 2 4 mph 982.6mb 46f 40f
6:50pm 1ft 3s 3s 9 11 mph 981.5mb 46f 40f
5:50pm 1ft 2s 2s 11 13 mph 980.6mb 46f 39f
4:50pm 0.3ft  -  2s 9 11 mph 980.2mb 46f 41f
3:50pm 0.3ft  -  2s 4 7 mph 980.2mb 46f 41f
2:50pm 0.3ft  -  2s 11 13 mph 980.1mb 46f 41f
1:50pm  -   -  2s 9 11 mph 980.3mb 46f 40f
12:50pm  -   -  2s 7 9 mph 980.6mb 46f 41f
11:50am 0.3ft  -  2s 7 9 mph 980.8mb 46f 40f
10:50am 0.3ft  -  2s 2 4 mph 981.1mb 47f 40f
9:50am 0.7ft  -  3s 11 13 mph 981.4mb 46f 39f
8:50am 0.3ft  -  2s 9 13 mph 981.4mb 46f 40f
7:50am 0.3ft  -  2s 13 16 mph 981.6mb 46f 39f
6:50am 0.7ft  -  3s 13 16 mph 981.6mb 46f 39f
5:50am 0.7ft  -  3s 16 20 mph 981.7mb 46f 39f
4:50am 0.7ft  -   -  9 11 mph 982.5mb 46f 39f
3:50am 0.3ft  -  2s 16 18 mph 983mb 46f 39f
2:50am 0.3ft  -  2s 7 9 mph 983.8mb 46f 40f
1:50am 0.3ft  -  2s 13 16 mph 984.4mb 46f 41f
12:50am  -   -  2s 11 13 mph 984.6mb 46f 42f
Sun 10/19 11:50pm  -   -  3s 4
mph
984.8mb 46f 44f
10:50pm 0.3ft  -  2s 7 9 mph 984.9mb 46f 44f
9:50pm  -   -  3s 2 7 mph 985.3mb 46f 43f
8:50pm  -   -  3s 7 9 mph 985.8mb 46f 42f
7:50pm  -   -  4s 7
mph
986.4mb 45f 41f
6:50pm  -   -  3s 4 7 mph 987.3mb 45f 41f
5:50pm  -   -  3s 4
mph
988mb 45f 40f
4:50pm  -   -  3s 4
mph
988.4mb 45f 40f
3:50pm  -   -  3s 7
mph
988.9mb 45f 40f
2:50pm  -   -  2s 7 9 mph 989.3mb 47f 40f
1:50pm  -   -  2s 2 4 mph 989.7mb 47f 41f
12:50pm  -   -  2s 4
mph
989.8mb 47f 41f
11:50am  -   -  2s 2
mph
990mb 47f 42f
10:50am  -   -  3s  -  2 mph 990.1mb 47f 42f
9:50am  -   -  3s 4
mph
990.2mb 46f 41f
8:50am  -   -  3s 7
mph
990.5mb 46f 42f
7:50am  -   -  2s 2 7 mph 990.6mb 46f 42f
6:50am  -   -  2s 4 7 mph 990.8mb 46f 43f